Time;durP1;ratioP1;P1;durP2;ratioP2;P2;SDS_P1;SDS_P2;PMS_P1;PMS_P2;Temp;Humidity;BMP_temperature;BMP_pressure;BME280_temperature;BME280_humidity;BME280_pressure;Samples;Min_cycle;Max_cycle;Signal;HPM_P1;HPM_P2
2023/03/14 00:00:11;;;;;;;;;;;;;;;10.77;100.00;98786.00;5086078;28;20013;-75
2023/03/14 00:02:36;;;;;;;;;;;;;;;10.83;100.00;98788.00;5089130;28;20288;-75
2023/03/14 00:05:06;;;;;;;;;;;;;;;10.74;100.00;98781.03;5087192;28;20386;-74
2023/03/14 00:07:34;;;;;;;;;;;;;;;10.72;100.00;98785.63;5086106;28;19973;-75
2023/03/14 00:10:01;;;;;;;;;;;;;;;10.70;100.00;98773.59;5085391;28;20057;-75
2023/03/14 00:12:26;;;;;;;;;;;;;;;10.63;100.00;98760.22;5088310;28;20404;-75
2023/03/14 00:14:52;;;;;;;;;;;;;;;10.53;100.00;98743.75;5085340;28;20028;-76
2023/03/14 00:17:17;;;;;;;;;;;;;;;10.62;100.00;98716.38;5089090;28;19920;-76
2023/03/14 00:19:42;;;;;;;;;;;;;;;10.62;100.00;98700.53;5085466;28;19950;-75
2023/03/14 00:22:08;;;;;;;;;;;;;;;10.68;100.00;98710.44;5088952;28;20018;-75
2023/03/14 00:24:33;;;;;;;;;;;;;;;10.68;100.00;98713.06;5085637;28;19975;-74
2023/03/14 00:26:59;;;;;;;;;;;;;;;10.72;100.00;98701.19;5085549;28;19921;-75
2023/03/14 00:29:24;;;;;;;;;;;;;;;10.76;100.00;98691.97;5083400;28;20366;-76
2023/03/14 00:31:49;;;;;;;;;;;;;;;10.77;100.00;98698.91;5088127;28;20399;-74
2023/03/14 00:34:15;;;;;;;;;;;;;;;10.79;100.00;98681.09;5084493;28;19923;-74
2023/03/14 00:36:40;;;;;;;;;;;;;;;10.80;100.00;98679.28;5088526;28;20319;-74
2023/03/14 00:39:06;;;;;;;;;;;;;;;10.84;100.00;98656.84;5085239;28;20011;-74
2023/03/14 00:41:31;;;;;;;;;;;;;;;10.83;100.00;98653.41;5087019;28;19957;-75
2023/03/14 00:43:57;;;;;;;;;;;;;;;10.84;100.00;98673.50;5088221;28;19920;-74
2023/03/14 00:46:22;;;;;;;;;;;;;;;10.87;100.00;98662.63;5088198;28;20363;-74
2023/03/14 00:48:47;;;;;;;;;;;;;;;10.84;100.00;98652.38;5084809;28;19920;-75
2023/03/14 00:51:14;;;;;;;;;;;;;;;10.84;100.00;98657.66;5088392;28;19920;-74
2023/03/14 00:53:42;;;;;;;;;;;;;;;10.84;100.00;98652.38;5083272;28;19927;-74
2023/03/14 00:56:09;;;;;;;;;;;;;;;10.87;100.00;98624.84;5062994;28;20043;-74
2023/03/14 00:58:35;;;;;;;;;;;;;;;10.87;100.00;98593.16;5085708;28;19924;-74
2023/03/14 01:01:05;;;;;;;;;;;;;;;10.89;100.00;98586.75;5087546;28;19965;-75
2023/03/14 01:03:30;;;;;;;;;;;;;;;10.87;100.00;98583.44;5084318;28;19931;-75
2023/03/14 01:06:06;;;;;;;;;;;;;;;10.87;100.00;98591.34;5087865;28;20003;-74
2023/03/14 01:08:32;;;;;;;;;;;;;;;10.88;100.00;98598.28;5086931;28;19920;-75
2023/03/14 01:10:57;;;;;;;;;;;;;;;10.87;100.00;98572.88;5071365;28;19920;-75
2023/03/14 01:13:23;;;;;;;;;;;;;;;10.81;100.00;98565.63;5084360;28;19935;-75
2023/03/14 01:15:48;;;;;;;;;;;;;;;10.80;100.00;98556.06;5088342;28;19920;-76
2023/03/14 01:18:14;;;;;;;;;;;;;;;10.75;100.00;98542.56;5085063;28;20475;-74
2023/03/14 01:20:39;;;;;;;;;;;;;;;10.79;100.00;98549.13;5088689;28;19966;-74
2023/03/14 01:23:05;;;;;;;;;;;;;;;10.77;100.00;98545.88;5085740;28;19927;-74
2023/03/14 01:25:30;;;;;;;;;;;;;;;10.77;100.00;98553.78;5068898;28;19935;-74
2023/03/14 01:27:56;;;;;;;;;;;;;;;10.74;100.00;98526.88;5081820;28;19966;-75
2023/03/14 01:30:21;;;;;;;;;;;;;;;10.75;100.00;98505.63;5071067;28;20291;-75
2023/03/14 01:32:47;;;;;;;;;;;;;;;10.61;100.00;98503.66;5069767;28;19924;-75
2023/03/14 01:35:12;;;;;;;;;;;;;;;10.50;100.00;98519.84;5085622;28;19920;-74
2023/03/14 01:37:38;;;;;;;;;;;;;;;10.33;100.00;98534.03;5084241;28;19920;-74
2023/03/14 01:40:06;;;;;;;;;;;;;;;10.36;100.00;98533.72;5063576;28;19927;-74
2023/03/14 01:42:31;;;;;;;;;;;;;;;10.34;100.00;98533.06;5079653;28;20380;-74
2023/03/14 01:44:58;;;;;;;;;;;;;;;10.33;100.00;98537.50;5071877;28;20014;-73
2023/03/14 01:47:24;;;;;;;;;;;;;;;10.22;100.00;98537.84;5082070;28;20357;-73
2023/03/14 01:50:01;;;;;;;;;;;;;;;10.14;100.00;98543.88;5069254;28;19951;-74
2023/03/14 01:52:33;;;;;;;;;;;;;;;9.98;100.00;98564.16;5093617;28;20793;-73
2023/03/14 01:55:03;;;;;;;;;;;;;;;9.94;100.00;98574.19;5063802;28;20004;-73
2023/03/14 01:57:33;;;;;;;;;;;;;;;9.88;100.00;98582.75;5081450;28;19931;-74
2023/03/14 02:00:14;;;;;;;;;;;;;;;9.86;100.00;98577.63;5066431;28;19946;-74
2023/03/14 02:02:41;;;;;;;;;;;;;;;9.84;100.00;98573.50;5082629;28;19924;-74
2023/03/14 02:05:08;;;;;;;;;;;;;;;9.89;100.00;98560.69;5065242;28;19921;-74
2023/03/14 02:07:39;;;;;;;;;;;;;;;9.83;100.00;98550.81;5070821;28;19924;-74
2023/03/14 02:10:14;;;;;;;;;;;;;;;9.81;100.00;98543.06;5066403;28;19963;-73
2023/03/14 02:12:40;;;;;;;;;;;;;;;9.94;100.00;98525.94;5069105;28;19920;-74
2023/03/14 02:15:26;;;;;;;;;;;;;;;9.97;100.00;98529.06;5085492;28;19931;-73
2023/03/14 02:17:58;;;;;;;;;;;;;;;10.04;100.00;98519.50;5086028;28;19924;-74
2023/03/14 02:21:08;;;;;;;;;;;;;;;10.10;100.00;98500.41;5067489;28;19924;-74
2023/03/14 02:23:37;;;;;;;;;;;;;;;10.14;100.00;98480.63;5085526;28;19935;-74
2023/03/14 02:26:05;;;;;;;;;;;;;;;10.14;100.00;98470.09;5066203;28;20021;-73
2023/03/14 02:28:31;;;;;;;;;;;;;;;10.28;100.00;98468.63;5084953;28;19924;-74
2023/03/14 02:30:59;;;;;;;;;;;;;;;10.31;100.00;98457.72;5067150;28;19943;-73
2023/03/14 02:33:24;;;;;;;;;;;;;;;10.37;100.00;98458.91;5084347;28;20387;-73
2023/03/14 02:35:55;;;;;;;;;;;;;;;10.36;100.00;98470.44;5081547;28;19917;-73
2023/03/14 02:38:40;;;;;;;;;;;;;;;10.37;100.00;98469.44;5083808;28;19924;-73
2023/03/14 02:41:06;;;;;;;;;;;;;;;10.32;100.00;98461.19;5064376;28;19987;-73
2023/03/14 02:43:36;;;;;;;;;;;;;;;10.29;100.00;98472.91;5067021;28;19920;-73
2023/03/14 02:46:08;;;;;;;;;;;;;;;10.35;100.00;98497.78;5065199;28;19917;-74
2023/03/14 02:48:34;;;;;;;;;;;;;;;10.39;100.00;98493.81;5082711;28;19929;-73
2023/03/14 02:51:00;;;;;;;;;;;;;;;10.42;100.00;98467.13;5086301;28;19931;-73
2023/03/14 02:53:27;;;;;;;;;;;;;;;10.46;100.00;98465.78;5064928;28;19977;-73
2023/03/14 02:55:55;;;;;;;;;;;;;;;10.52;100.00;98462.47;5062820;28;19924;-74
2023/03/14 02:58:22;;;;;;;;;;;;;;;10.54;100.00;98473.69;5067631;28;20651;-74
2023/03/14 03:00:53;;;;;;;;;;;;;;;10.57;100.00;98470.72;5065403;28;20038;-73
2023/03/14 03:03:19;;;;;;;;;;;;;;;10.57;100.00;98458.34;5095891;28;19982;-74
2023/03/14 03:05:48;;;;;;;;;;;;;;;10.61;100.00;98469.38;5081194;28;20012;-75
2023/03/14 03:08:14;;;;;;;;;;;;;;;10.53;100.00;98479.97;5081143;28;19954;-74
2023/03/14 03:10:39;;;;;;;;;;;;;;;10.44;100.00;98496.78;5066797;28;20007;-73
2023/03/14 03:13:06;;;;;;;;;;;;;;;10.32;100.00;98561.38;5081902;28;19995;-73
2023/03/14 03:15:31;;;;;;;;;;;;;;;10.23;100.00;98600.13;5083861;28;20002;-74
2023/03/14 03:17:57;;;;;;;;;;;;;;;10.24;100.00;98642.16;5066751;28;19927;-74
2023/03/14 03:20:22;;;;;;;;;;;;;;;10.22;100.00;98667.84;5066063;28;20034;-73
2023/03/14 03:22:49;;;;;;;;;;;;;;;10.10;100.00;98674.38;5081140;28;19921;-74
2023/03/14 03:25:15;;;;;;;;;;;;;;;10.17;100.00;98667.53;5084262;28;19924;-74
2023/03/14 03:27:40;;;;;;;;;;;;;;;10.13;100.00;98667.97;5081904;28;20068;-73
2023/03/14 03:30:07;;;;;;;;;;;;;;;10.15;100.00;98656.28;5049645;28;19928;-73
2023/03/14 03:32:33;;;;;;;;;;;;;;;10.16;100.00;98663.22;5064062;28;19955;-74
2023/03/14 03:34:59;;;;;;;;;;;;;;;10.24;100.00;98644.78;5063097;28;19974;-74
2023/03/14 03:37:25;;;;;;;;;;;;;;;10.30;100.00;98600.31;5064707;28;19931;-73
2023/03/14 03:39:51;;;;;;;;;;;;;;;10.25;100.00;98572.59;5065956;28;20129;-73
2023/03/14 03:42:17;;;;;;;;;;;;;;;10.26;100.00;98576.88;5097971;28;20308;-74
2023/03/14 03:44:42;;;;;;;;;;;;;;;10.16;100.00;98578.88;5084301;28;20080;-73
2023/03/14 03:47:09;;;;;;;;;;;;;;;10.20;100.00;98580.19;5079068;28;20384;-73
2023/03/14 03:49:35;;;;;;;;;;;;;;;10.23;100.00;98569.31;5065473;28;19935;-74
2023/03/14 03:52:00;;;;;;;;;;;;;;;10.17;100.00;98564.69;5061220;28;19926;-74
2023/03/14 03:54:26;;;;;;;;;;;;;;;10.15;100.00;98566.63;5061876;28;19930;-73
2023/03/14 03:56:51;;;;;;;;;;;;;;;10.17;100.00;98548.88;5061762;28;19923;-74
2023/03/14 03:59:17;;;;;;;;;;;;;;;10.21;100.00;98534.38;5065788;28;19981;-74
2023/03/14 04:01:44;;;;;;;;;;;;;;;10.27;100.00;98502.06;5062812;28;19928;-74
2023/03/14 04:04:10;;;;;;;;;;;;;;;10.20;100.00;98530.09;5084728;28;19920;-74
2023/03/14 04:06:36;;;;;;;;;;;;;;;10.19;100.00;98503.91;5085388;28;19917;-72
2023/03/14 04:09:02;;;;;;;;;;;;;;;10.10;100.00;98505.69;5087872;28;20336;-72
2023/03/14 04:11:37;;;;;;;;;;;;;;;10.10;100.00;98467.94;5069674;28;19920;-72
2023/03/14 04:14:22;;;;;;;;;;;;;;;10.19;100.00;98467.78;5085914;28;19942;-73
2023/03/14 04:16:56;;;;;;;;;;;;;;;10.17;100.00;98464.53;5068039;28;19919;-72
2023/03/14 04:19:22;;;;;;;;;;;;;;;10.21;100.00;98459.72;5086890;28;19982;-72
2023/03/14 04:21:49;;;;;;;;;;;;;;;10.18;100.00;98454.81;5067393;28;20403;-73
2023/03/14 04:24:14;;;;;;;;;;;;;;;10.17;100.00;98464.53;5069500;28;19930;-74
2023/03/14 04:26:43;;;;;;;;;;;;;;;10.22;100.00;98462.22;5070130;28;20000;-73
2023/03/14 04:29:10;;;;;;;;;;;;;;;10.24;100.00;98467.31;5069856;28;20279;-73
2023/03/14 04:31:35;;;;;;;;;;;;;;;10.22;100.00;98451.66;5065729;28;20012;-74
2023/03/14 04:34:00;;;;;;;;;;;;;;;10.23;100.00;98450.69;5071709;28;20391;-74
2023/03/14 04:36:33;;;;;;;;;;;;;;;10.29;100.00;98451.00;5068016;28;19931;-74
2023/03/14 04:39:03;;;;;;;;;;;;;;;10.31;100.00;98443.75;5085399;28;19934;-73
2023/03/14 04:41:30;;;;;;;;;;;;;;;10.36;100.00;98457.25;5067887;28;19946;-73
2023/03/14 04:43:56;;;;;;;;;;;;;;;10.32;100.00;98466.47;5069974;28;19920;-74
2023/03/14 04:46:21;;;;;;;;;;;;;;;10.22;100.00;98466.66;5068307;28;19927;-74
2023/03/14 04:48:47;;;;;;;;;;;;;;;10.08;100.00;98478.66;5069367;28;19936;-74
2023/03/14 04:51:14;;;;;;;;;;;;;;;10.06;100.00;98480.66;5065385;28;20015;-73
2023/03/14 04:53:39;;;;;;;;;;;;;;;10.10;100.00;98474.03;5082964;28;20000;-73
2023/03/14 04:56:09;;;;;;;;;;;;;;;10.16;100.00;98452.31;5069208;28;20269;-73
2023/03/14 04:58:37;;;;;;;;;;;;;;;10.03;100.00;98446.69;5066310;28;20031;-73
2023/03/14 05:01:04;;;;;;;;;;;;;;;9.95;100.00;98435.34;5070203;28;20356;-74
2023/03/14 05:03:45;;;;;;;;;;;;;;;10.03;100.00;98435.34;5069382;28;20284;-74
2023/03/14 05:06:24;;;;;;;;;;;;;;;10.06;100.00;98435.84;5084492;28;19927;-73
2023/03/14 05:09:28;;;;;;;;;;;;;;;10.11;100.00;98446.72;5029141;28;19925;-74
2023/03/14 05:12:28;;;;;;;;;;;;;;;9.98;100.00;98454.28;5017968;28;20004;-73
2023/03/14 05:15:14;;;;;;;;;;;;;;;9.83;100.00;98451.50;5028117;28;19925;-74
2023/03/14 05:17:59;;;;;;;;;;;;;;;9.80;100.00;98461.53;5024538;28;19921;-73
2023/03/14 05:20:43;;;;;;;;;;;;;;;9.77;100.00;98448.69;5011986;28;20353;-74
2023/03/14 05:23:41;;;;;;;;;;;;;;;9.87;100.00;98446.72;5014378;28;19968;-74
2023/03/14 05:26:24;;;;;;;;;;;;;;;9.89;100.00;98449.19;5026366;28;20308;-74
2023/03/14 05:28:59;;;;;;;;;;;;;;;9.95;100.00;98444.09;5026288;28;20349;-73
2023/03/14 05:31:39;;;;;;;;;;;;;;;9.94;100.00;98437.16;5024703;28;19964;-74
2023/03/14 05:34:27;;;;;;;;;;;;;;;9.91;100.00;98426.13;5026939;28;20035;-74
2023/03/14 05:37:21;;;;;;;;;;;;;;;9.94;100.00;98418.72;5028072;28;20456;-73
2023/03/14 05:40:15;;;;;;;;;;;;;;;9.95;100.00;98417.75;5048374;28;19949;-75
2023/03/14 05:43:09;;;;;;;;;;;;;;;9.95;100.00;98423.00;5056566;28;19980;-74
2023/03/14 05:45:51;;;;;;;;;;;;;;;9.93;100.00;98430.25;5082897;28;20392;-74
2023/03/14 05:48:29;;;;;;;;;;;;;;;9.95;100.00;98425.66;5080902;28;20403;-74
2023/03/14 05:51:14;;;;;;;;;;;;;;;10.00;100.00;98420.69;5033777;28;19928;-74
2023/03/14 05:53:48;;;;;;;;;;;;;;;10.08;100.00;98417.19;5067844;28;19920;-74
2023/03/14 05:56:32;;;;;;;;;;;;;;;10.06;100.00;98425.31;5086616;28;20019;-74
2023/03/14 05:59:18;;;;;;;;;;;;;;;10.06;100.00;98413.94;5067054;28;19944;-74
2023/03/14 06:01:56;;;;;;;;;;;;;;;10.01;100.00;98416.25;5066653;28;20418;-75
2023/03/14 06:04:25;;;;;;;;;;;;;;;10.04;100.00;98424.63;5072092;28;20726;-75
2023/03/14 06:06:55;;;;;;;;;;;;;;;10.08;100.00;98412.75;5067245;28;20360;-76
2023/03/14 06:09:23;;;;;;;;;;;;;;;10.17;100.00;98400.44;5066173;28;19927;-79
2023/03/14 06:11:48;;;;;;;;;;;;;;;10.22;100.00;98403.38;5067494;28;19920;-77
2023/03/14 06:14:14;;;;;;;;;;;;;;;10.27;100.00;98407.16;5067194;28;19928;-77
2023/03/14 06:16:43;;;;;;;;;;;;;;;10.32;100.00;98403.19;5069974;28;20015;-77
2023/03/14 06:19:10;;;;;;;;;;;;;;;10.37;100.00;98400.88;5081200;28;20382;-76
2023/03/14 06:21:36;;;;;;;;;;;;;;;10.43;100.00;98392.25;5066265;28;20449;-76
2023/03/14 06:24:01;;;;;;;;;;;;;;;10.44;100.00;98391.28;5063140;28;19927;-75
2023/03/14 06:26:29;;;;;;;;;;;;;;;10.45;100.00;98403.47;5062299;28;19979;-75
2023/03/14 06:28:54;;;;;;;;;;;;;;;10.48;100.00;98406.63;5085824;28;20464;-74
2023/03/14 06:31:20;;;;;;;;;;;;;;;10.50;100.00;98416.97;5067045;28;20003;-75
2023/03/14 06:33:54;;;;;;;;;;;;;;;10.45;100.00;98421.94;5068345;28;20367;-75
2023/03/14 06:36:21;;;;;;;;;;;;;;;10.45;100.00;98429.84;5066522;28;20380;-74
2023/03/14 06:38:47;;;;;;;;;;;;;;;10.49;100.00;98426.69;5067518;28;19928;-76
2023/03/14 06:41:13;;;;;;;;;;;;;;;10.52;100.00;98410.56;5087648;28;19920;-76
2023/03/14 06:43:41;;;;;;;;;;;;;;;10.57;100.00;98402.13;5049272;28;19921;-77
2023/03/14 06:46:07;;;;;;;;;;;;;;;10.61;100.00;98398.13;5065890;28;19928;-74
2023/03/14 06:48:35;;;;;;;;;;;;;;;10.65;100.00;98389.72;5068008;28;20398;-75
2023/03/14 06:51:01;;;;;;;;;;;;;;;10.68;100.00;98399.09;5065659;28;19958;-76
2023/03/14 06:53:27;;;;;;;;;;;;;;;10.72;100.00;98395.13;5087210;28;19960;-78
2023/03/14 06:55:52;;;;;;;;;;;;;;;10.75;100.00;98394.78;5063471;28;19951;-74
2023/03/14 06:58:19;;;;;;;;;;;;;;;10.77;100.00;98382.25;5083708;28;19920;-75
2023/03/14 07:00:45;;;;;;;;;;;;;;;10.78;100.00;98397.06;5070428;28;20240;-77
2023/03/14 07:03:14;;;;;;;;;;;;;;;10.86;100.00;98386.50;5064745;28;20007;-76
2023/03/14 07:05:42;;;;;;;;;;;;;;;10.80;100.00;98397.72;5082577;28;19920;-74
2023/03/14 07:08:08;;;;;;;;;;;;;;;10.79;100.00;98401.38;5059578;28;19977;-78
2023/03/14 07:10:34;;;;;;;;;;;;;;;10.78;100.00;98397.06;5061718;28;19967;-76
2023/03/14 07:12:59;;;;;;;;;;;;;;;10.77;100.00;98403.38;5081284;28;19971;-79
2023/03/14 07:15:27;;;;;;;;;;;;;;;10.75;100.00;98410.63;5064637;28;19930;-80
2023/03/14 07:17:57;;;;;;;;;;;;;;;10.79;100.00;98417.19;5065078;28;19956;-80
2023/03/14 07:20:23;;;;;;;;;;;;;;;10.83;100.00;98412.41;5062632;28;20428;-80
2023/03/14 07:22:50;;;;;;;;;;;;;;;10.87;100.00;98424.25;5066193;28;19920;-80
2023/03/14 07:25:19;;;;;;;;;;;;;;;10.89;100.00;98430.19;5063867;28;19926;-80
2023/03/14 07:27:45;;;;;;;;;;;;;;;10.90;100.00;98424.72;5081137;28;19924;-81
2023/03/14 07:30:11;;;;;;;;;;;;;;;10.92;100.00;98443.88;5092513;28;20365;-78
2023/03/14 07:32:37;;;;;;;;;;;;;;;10.89;100.00;98443.41;5082032;28;19921;-80
2023/03/14 07:35:03;;;;;;;;;;;;;;;11.02;100.00;98443.66;5065359;28;19927;-79
2023/03/14 07:37:29;;;;;;;;;;;;;;;11.03;100.00;98448.75;5066945;28;20276;-80
2023/03/14 07:39:54;;;;;;;;;;;;;;;11.07;100.00;98462.47;5085918;28;19931;-79
2023/03/14 07:42:24;;;;;;;;;;;;;;;11.14;100.00;98452.00;5066431;28;19951;-80
2023/03/14 07:44:59;;;;;;;;;;;;;;;11.16;100.00;98445.56;5070437;28;19932;-80
2023/03/14 07:47:24;;;;;;;;;;;;;;;11.26;100.00;98446.16;5084153;28;19924;-80
2023/03/14 07:49:49;;;;;;;;;;;;;;;11.41;100.00;98446.25;5087796;28;19968;-80
2023/03/14 07:52:15;;;;;;;;;;;;;;;11.55;100.00;98449.94;5084500;28;19923;-79
2023/03/14 07:54:40;;;;;;;;;;;;;;;11.65;100.00;98451.38;5070533;28;19994;-80
2023/03/14 07:57:06;;;;;;;;;;;;;;;11.79;100.00;98453.25;5070577;28;20011;-80
2023/03/14 07:59:31;;;;;;;;;;;;;;;11.85;100.00;98462.31;5088689;28;19920;-80
2023/03/14 08:01:58;;;;;;;;;;;;;;;11.84;100.00;98456.19;5084410;28;19920;-81
2023/03/14 08:04:24;;;;;;;;;;;;;;;11.94;100.00;98460.44;5089440;28;19921;-79
2023/03/14 08:06:49;;;;;;;;;;;;;;;12.05;100.00;98457.34;5085547;28;20011;-82
2023/03/14 08:09:15;;;;;;;;;;;;;;;11.99;100.00;98452.78;5088067;28;19931;-79
2023/03/14 08:11:40;;;;;;;;;;;;;;;12.04;100.00;98456.53;5084114;28;19954;-81
2023/03/14 08:14:06;;;;;;;;;;;;;;;12.17;100.00;98451.47;5087900;28;19920;-81
2023/03/14 08:16:31;;;;;;;;;;;;;;;12.25;100.00;98437.34;5081902;28;19974;-81
2023/03/14 08:18:57;;;;;;;;;;;;;;;12.33;100.00;98434.59;5089414;28;19920;-80
2023/03/14 08:21:22;;;;;;;;;;;;;;;12.40;100.00;98437.34;5084316;28;19921;-81
2023/03/14 08:23:48;;;;;;;;;;;;;;;12.44;100.00;98442.09;5087559;28;19923;-80
2023/03/14 08:26:13;;;;;;;;;;;;;;;12.41;100.00;98431.88;5088707;28;19930;-81
2023/03/14 08:28:39;;;;;;;;;;;;;;;12.47;100.00;98436.44;5065070;28;20026;-79
2023/03/14 08:31:04;;;;;;;;;;;;;;;12.43;100.00;98440.44;5091140;28;19964;-78
2023/03/14 08:33:30;;;;;;;;;;;;;;;12.43;100.00;98429.84;5090846;28;19920;-79
2023/03/14 08:35:56;;;;;;;;;;;;;;;12.20;100.00;98439.69;5087009;28;19921;-78
2023/03/14 08:38:22;;;;;;;;;;;;;;;12.10;100.00;98434.66;5089186;28;19920;-81
2023/03/14 08:40:54;;;;;;;;;;;;;;;12.05;100.00;98430.91;5094768;28;20015;-78
2023/03/14 08:43:20;;;;;;;;;;;;;;;12.03;100.00;98435.56;5075849;28;20292;-80
2023/03/14 08:45:45;;;;;;;;;;;;;;;11.97;100.00;98429.16;5070625;28;19931;-79
2023/03/14 08:48:10;;;;;;;;;;;;;;;11.90;100.00;98431.69;5090892;28;19916;-80
2023/03/14 08:50:36;;;;;;;;;;;;;;;12.07;100.00;98434.22;5089413;28;19921;-80
2023/03/14 08:53:02;;;;;;;;;;;;;;;12.09;100.00;98432.19;5093360;28;19927;-81
2023/03/14 08:55:27;;;;;;;;;;;;;;;12.18;100.00;98433.78;5088860;28;20003;-80
2023/03/14 08:57:53;;;;;;;;;;;;;;;12.32;100.00;98432.97;5088669;28;19974;-81
2023/03/14 09:00:19;;;;;;;;;;;;;;;12.43;100.00;98437.81;5091572;28;19931;-79
2023/03/14 09:02:44;;;;;;;;;;;;;;;12.44;100.00;98441.25;5094599;28;19924;-80
2023/03/14 09:05:10;;;;;;;;;;;;;;;12.48;100.00;98443.41;5090101;28;19927;-81
2023/03/14 09:07:35;;;;;;;;;;;;;;;12.59;100.00;98442.94;5094325;28;19920;-79
2023/03/14 09:10:01;;;;;;;;;;;;;;;12.67;100.00;98442.81;5052518;28;19969;-79
2023/03/14 09:12:27;;;;;;;;;;;;;;;12.78;100.00;98438.09;5079420;28;19970;-80
2023/03/14 09:14:52;;;;;;;;;;;;;;;12.77;100.00;98437.28;5077215;28;19924;-79
2023/03/14 09:17:18;;;;;;;;;;;;;;;12.71;100.00;98435.34;5090260;28;19939;-79
2023/03/14 09:19:43;;;;;;;;;;;;;;;12.77;100.00;98436.44;5083385;28;19928;-79
2023/03/14 09:22:09;;;;;;;;;;;;;;;12.87;100.00;98431.69;5083271;28;19928;-79
2023/03/14 09:24:34;;;;;;;;;;;;;;;12.89;100.00;98435.81;5071483;28;19924;-80
2023/03/14 09:27:00;;;;;;;;;;;;;;;12.82;100.00;98434.06;5068024;28;19920;-80
2023/03/14 09:29:26;;;;;;;;;;;;;;;12.73;100.00;98438.63;5082739;28;19982;-79
2023/03/14 09:31:51;;;;;;;;;;;;;;;12.86;100.00;98424.75;5068671;28;19928;-80
2023/03/14 09:34:17;;;;;;;;;;;;;;;12.95;100.00;98421.00;5084927;28;19920;-80
2023/03/14 09:36:44;;;;;;;;;;;;;;;12.96;100.00;98422.66;5087106;28;19920;-79
2023/03/14 09:39:09;;;;;;;;;;;;;;;13.04;100.00;98417.22;5082751;28;20771;-79
2023/03/14 09:41:40;;;;;;;;;;;;;;;13.08;100.00;98423.78;5086272;28;20555;-79
2023/03/14 09:44:13;;;;;;;;;;;;;;;13.14;100.00;98417.78;5098645;28;20030;-79
2023/03/14 09:46:40;;;;;;;;;;;;;;;13.21;100.00;98428.44;5085938;28;19941;-79
2023/03/14 09:49:11;;;;;;;;;;;;;;;13.34;100.00;98428.59;5082955;28;19967;-79
2023/03/14 09:51:37;;;;;;;;;;;;;;;13.39;100.00;98421.72;5083418;28;19920;-79
2023/03/14 09:54:04;;;;;;;;;;;;;;;13.42;100.00;98424.03;5083971;28;19927;-80
2023/03/14 09:56:32;;;;;;;;;;;;;;;13.50;100.00;98423.06;5084720;28;20376;-79
2023/03/14 09:59:02;;;;;;;;;;;;;;;13.55;100.00;98422.50;5084769;28;19920;-79
2023/03/14 10:01:30;;;;;;;;;;;;;;;13.57;100.00;98423.13;5083974;28;19934;-79
2023/03/14 10:03:56;;;;;;;;;;;;;;;13.51;100.00;98414.94;5067426;28;19930;-79
2023/03/14 10:06:25;;;;;;;;;;;;;;;13.52;100.00;98426.34;5084334;28;19927;-79
2023/03/14 10:08:52;;;;;;;;;;;;;;;13.58;100.00;98424.78;5070178;28;19920;-79
2023/03/14 10:11:18;;;;;;;;;;;;;;;13.60;100.00;98428.06;5087570;28;19920;-79
2023/03/14 10:14:03;;;;;;;;;;;;;;;13.59;100.00;98429.06;5084369;28;19920;-79
2023/03/14 10:16:30;;;;;;;;;;;;;;;13.64;100.00;98429.31;5082449;28;20605;-79
2023/03/14 10:19:01;;;;;;;;;;;;;;;13.70;100.00;98433.88;5100570;28;20239;-80
2023/03/14 10:21:28;;;;;;;;;;;;;;;13.73;100.00;98428.16;5086303;28;20807;-80
2023/03/14 10:23:54;;;;;;;;;;;;;;;13.83;100.00;98423.38;5084013;28;19920;-78
2023/03/14 10:26:27;;;;;;;;;;;;;;;13.84;100.00;98419.72;5083686;28;19927;-79
2023/03/14 10:28:53;;;;;;;;;;;;;;;13.78;100.00;98425.78;5087580;28;19927;-78
2023/03/14 10:31:24;;;;;;;;;;;;;;;13.77;100.00;98419.66;5081788;28;20295;-78
2023/03/14 10:34:03;;;;;;;;;;;;;;;13.80;100.00;98415.81;5069482;28;20327;-78
2023/03/14 10:36:30;;;;;;;;;;;;;;;13.87;100.00;98414.03;5067850;28;20382;-79
2023/03/14 10:39:16;;;;;;;;;;;;;;;13.90;100.00;98421.63;5089984;28;19931;-79
2023/03/14 10:41:46;;;;;;;;;;;;;;;13.91;100.00;98431.19;5087664;28;19924;-78
2023/03/14 10:44:12;;;;;;;;;;;;;;;13.97;100.00;98430.44;5087504;28;19927;-77
2023/03/14 10:46:38;;;;;;;;;;;;;;;13.85;100.00;98431.94;5085941;28;19939;-78
2023/03/14 10:49:34;;;;;;;;;;;;;;;13.80;100.00;98429.06;5065724;28;19921;-79
2023/03/14 10:52:08;;;;;;;;;;;;;;;13.80;100.00;98426.41;5084480;28;19924;-78
2023/03/14 10:54:34;;;;;;;;;;;;;;;13.79;100.00;98432.72;5085020;28;20269;-79
2023/03/14 10:57:00;;;;;;;;;;;;;;;13.89;100.00;98430.59;5082256;28;19927;-78
2023/03/14 10:59:33;;;;;;;;;;;;;;;14.03;100.00;98436.78;5085303;28;20410;-79
2023/03/14 11:02:01;;;;;;;;;;;;;;;14.21;100.00;98440.63;5065629;28;20339;-79
2023/03/14 11:04:45;;;;;;;;;;;;;;;14.38;100.00;98427.09;5083938;28;19920;-79
2023/03/14 11:07:16;;;;;;;;;;;;;;;14.45;100.00;98422.66;5085430;28;19927;-77
2023/03/14 11:09:46;;;;;;;;;;;;;;;14.46;100.00;98418.97;5082232;28;19924;-78
2023/03/14 11:12:30;;;;;;;;;;;;;;;14.50;100.00;98420.22;5084472;28;20014;-79
2023/03/14 11:15:01;;;;;;;;;;;;;;;14.62;100.00;98410.69;5064230;28;19924;-78
2023/03/14 11:17:26;;;;;;;;;;;;;;;14.67;100.00;98411.75;5082993;28;20002;-80
2023/03/14 11:20:10;;;;;;;;;;;;;;;14.72;100.00;98403.22;5063080;28;20066;-79
2023/03/14 11:22:59;;;;;;;;;;;;;;;14.90;100.00;98406.16;5078926;28;19935;-79
2023/03/14 11:26:03;;;;;;;;;;;;;;;14.95;100.00;98409.03;5076756;28;19927;-79
2023/03/14 11:28:47;;;;;;;;;;;;;;;14.98;100.00;98397.19;5019907;28;19921;-79
2023/03/14 11:31:27;;;;;;;;;;;;;;;14.97;100.00;98396.34;5002743;28;20334;-80
2023/03/14 11:33:59;;;;;;;;;;;;;;;14.91;100.00;98399.81;5022362;28;20296;-79
2023/03/14 11:36:30;;;;;;;;;;;;;;;14.68;100.00;98401.94;5022891;28;20270;-79
2023/03/14 11:38:57;;;;;;;;;;;;;;;14.74;100.00;98395.84;5025928;28;19924;-78
2023/03/14 11:41:29;;;;;;;;;;;;;;;14.81;100.00;98394.03;5023202;28;20099;-79
2023/03/14 11:43:56;;;;;;;;;;;;;;;14.88;100.00;98394.91;5023684;28;19921;-80
2023/03/14 11:46:39;;;;;;;;;;;;;;;14.82;100.00;98393.03;5017296;28;19922;-80
2023/03/14 11:49:13;;;;;;;;;;;;;;;14.81;100.00;98391.41;5025412;28;20604;-79
2023/03/14 11:51:40;;;;;;;;;;;;;;;14.82;100.00;98387.72;5023500;28;20035;-79
2023/03/14 11:54:14;;;;;;;;;;;;;;;14.89;100.00;98377.94;5023955;28;19929;-79
2023/03/14 11:56:46;;;;;;;;;;;;;;;14.84;100.00;98380.38;5024488;28;20002;-79
2023/03/14 11:59:17;;;;;;;;;;;;;;;14.77;100.00;98374.22;5046845;28;19924;-80
2023/03/14 12:01:54;;;;;;;;;;;;;;;14.81;100.00;98375.47;5082377;28;20457;-79
2023/03/14 12:04:19;;;;;;;;;;;;;;;14.86;100.00;98367.72;5082342;28;19955;-79
2023/03/14 12:06:49;;;;;;;;;;;;;;;14.93;100.00;98360.59;5081646;28;19955;-78
2023/03/14 12:09:16;;;;;;;;;;;;;;;15.10;100.00;98361.03;5083547;28;19920;-79
2023/03/14 12:11:56;;;;;;;;;;;;;;;15.23;100.00;98357.59;5082300;28;19972;-79
2023/03/14 12:14:23;;;;;;;;;;;;;;;15.34;100.00;98357.84;5086737;28;20330;-81
2023/03/14 12:16:56;;;;;;;;;;;;;;;15.45;100.00;98356.41;5091665;28;19987;-80
2023/03/14 12:19:21;;;;;;;;;;;;;;;15.61;100.00;98356.03;5092467;28;19921;-80
2023/03/14 12:21:59;;;;;;;;;;;;;;;15.75;100.00;98349.72;5089003;28;19923;-80
2023/03/14 12:24:33;;;;;;;;;;;;;;;15.80;100.00;98347.25;5090403;28;19963;-80
2023/03/14 12:27:00;;;;;;;;;;;;;;;15.79;100.00;98337.63;5093532;28;19938;-80
2023/03/14 12:29:25;;;;;;;;;;;;;;;15.79;100.00;98348.28;5094721;28;19931;-81
2023/03/14 12:32:00;;;;;;;;;;;;;;;15.88;100.00;98331.09;5098772;28;20014;-80
2023/03/14 12:34:27;;;;;;;;;;;;;;;16.01;100.00;98329.44;5097834;28;19970;-79
2023/03/14 12:36:54;;;;;;;;;;;;;;;16.14;100.00;98334.75;5101448;28;19920;-80
2023/03/14 12:39:38;;;;;;;;;;;;;;;16.16;100.00;98332.69;5098275;28;19927;-79
2023/03/14 12:42:08;;;;;;;;;;;;;;;16.32;100.00;98321.59;5090364;28;19927;-79
2023/03/14 12:44:34;;;;;;;;;;;;;;;16.34;100.00;98309.72;5090749;28;19920;-79
2023/03/14 12:47:00;;;;;;;;;;;;;;;16.37;100.00;98297.84;5098506;28;19930;-81
2023/03/14 12:49:30;;;;;;;;;;;;;;;16.40;100.00;98292.06;5095867;28;19924;-78